Time;durP1;ratioP1;P1;durP2;ratioP2;P2;SDS_P1;SDS_P2;PMS_P1;PMS_P2;Temp;Humidity;BMP_temperature;BMP_pressure;BME280_temperature;BME280_humidity;BME280_pressure;Samples;Min_cycle;Max_cycle;Signal;HPM_P1;HPM_P2
2023/01/30 00:01:28;;;;;;;20.37;13.97;;;;;;;2.63;53.55;98107.13;5064988;28;20290;-69
2023/01/30 00:03:53;;;;;;;23.50;14.33;;;;;;;2.58;53.23;98110.78;5060577;28;20207;-68
2023/01/30 00:06:19;;;;;;;23.10;15.50;;;;;;;2.48;53.31;98108.75;5058921;28;20425;-68
2023/01/30 00:08:45;;;;;;;23.87;15.27;;;;;;;2.52;53.25;98094.75;5059668;28;20185;-67
2023/01/30 00:11:13;;;;;;;25.70;15.90;;;;;;;2.55;53.35;98086.81;5067147;28;20579;-68
2023/01/30 00:13:39;;;;;;;29.50;15.83;;;;;;;2.46;53.12;98091.53;5066875;28;20437;-69
2023/01/30 00:16:05;;;;;;;22.57;14.47;;;;;;;2.39;53.04;98068.69;5043394;28;20464;-68
2023/01/30 00:18:30;;;;;;;27.97;15.30;;;;;;;2.46;53.65;98062.25;5061220;28;20413;-69
2023/01/30 00:21:01;;;;;;;23.37;14.60;;;;;;;2.35;53.77;98047.28;5052970;28;20414;-69
2023/01/30 00:23:27;;;;;;;24.60;14.20;;;;;;;2.46;54.29;98038.97;5060185;28;20210;-70
2023/01/30 00:25:53;;;;;;;19.67;12.67;;;;;;;2.54;54.67;98041.16;5054610;28;20784;-68
2023/01/30 00:28:19;;;;;;;19.50;12.90;;;;;;;2.66;54.58;98045.69;5065331;28;20416;-69
2023/01/30 00:30:47;;;;;;;19.23;12.90;;;;;;;2.71;54.09;98058.38;5065525;28;20277;-68
2023/01/30 00:33:13;;;;;;;22.80;12.70;;;;;;;2.67;54.24;98054.25;5058669;28;20207;-70
2023/01/30 00:35:45;;;;;;;21.03;13.20;;;;;;;2.67;54.10;98056.84;5062565;28;20861;-69
2023/01/30 00:38:10;;;;;;;24.60;15.77;;;;;;;2.57;53.76;98052.16;5052117;28;20190;-70
2023/01/30 00:40:36;;;;;;;25.30;14.03;;;;;;;2.59;53.29;98036.56;5068995;28;20500;-70
2023/01/30 00:48:30;;;;;;;23.17;13.40;;;;;;;2.59;53.79;98032.22;5061810;28;20424;-68
2023/01/30 00:50:56;;;;;;;20.83;13.30;;;;;;;2.61;53.78;98038.16;5062190;28;20421;-68
2023/01/30 00:53:21;;;;;;;18.10;11.93;;;;;;;2.71;54.03;98048.84;5057209;28;20194;-69
2023/01/30 00:55:49;;;;;;;21.23;13.27;;;;;;;2.60;53.88;98052.03;5058879;28;20206;-70
2023/01/30 00:58:15;;;;;;;21.73;13.30;;;;;;;2.67;53.69;98062.03;5051419;28;20332;-69
2023/01/30 01:00:40;;;;;;;22.87;13.80;;;;;;;2.70;53.28;98067.91;5060783;28;20927;-68
2023/01/30 01:03:06;;;;;;;18.83;12.23;;;;;;;2.61;52.85;98074.41;5065762;28;20686;-70
2023/01/30 01:05:31;;;;;;;22.90;12.70;;;;;;;2.55;53.30;98092.00;5061125;28;20185;-70
2023/01/30 01:07:57;;;;;;;28.40;14.50;;;;;;;2.44;53.51;98102.91;5061657;28;20178;-68
2023/01/30 01:10:22;;;;;;;28.60;15.30;;;;;;;2.50;53.66;98102.59;5057024;28;20265;-71
2023/01/30 01:12:49;;;;;;;37.73;17.93;;;;;;;2.49;53.40;98106.09;5066528;28;20619;-68
2023/01/30 01:15:14;;;;;;;29.90;15.97;;;;;;;2.43;53.32;98111.56;5051695;28;20211;-72
2023/01/30 01:17:41;;;;;;;30.00;15.70;;;;;;;2.39;53.42;98110.91;5060159;28;20424;-70
2023/01/30 01:20:07;;;;;;;30.97;15.37;;;;;;;2.32;53.55;98106.13;5064649;28;20194;-70
2023/01/30 01:22:32;;;;;;;27.67;15.70;;;;;;;2.23;53.75;98112.59;5051435;28;20449;-70
2023/01/30 01:24:58;;;;;;;23.77;14.93;;;;;;;2.29;54.19;98115.69;5064604;28;20409;-70
2023/01/30 01:27:23;;;;;;;22.10;13.40;;;;;;;2.34;53.82;98114.66;5061003;28;20253;-70
2023/01/30 01:29:49;;;;;;;25.17;13.53;;;;;;;2.36;53.99;98125.75;5060929;28;20272;-71
2023/01/30 01:32:14;;;;;;;23.60;14.00;;;;;;;2.36;53.81;98129.16;5056236;28;20250;-70
2023/01/30 01:34:40;;;;;;;26.90;13.47;;;;;;;2.35;54.01;98130.09;5060423;28;20845;-70
2023/01/30 01:37:05;;;;;;;28.33;14.73;;;;;;;2.27;53.79;98138.22;5052829;28;20186;-70
2023/01/30 01:42:19;;;;;;;27.60;14.80;;;;;;;2.19;53.77;98129.19;5074637;28;20233;-70
2023/01/30 01:45:11;;;;;;;25.43;14.53;;;;;;;2.17;54.38;98116.31;5059888;28;20448;-69
2023/01/30 01:47:39;;;;;;;20.93;13.10;;;;;;;1.99;54.45;98108.59;5053625;28;20183;-68
2023/01/30 01:50:05;;;;;;;20.80;13.57;;;;;;;2.13;54.74;98114.81;5049574;28;20436;-68
2023/01/30 01:52:31;;;;;;;21.53;13.37;;;;;;;2.20;54.60;98108.41;5060419;28;20440;-69
2023/01/30 01:54:59;;;;;;;22.37;13.00;;;;;;;2.34;54.58;98099.94;5057803;28;20465;-70
2023/01/30 01:57:38;;;;;;;20.20;13.03;;;;;;;2.39;54.66;98105.72;5049506;28;20190;-70
2023/01/30 02:00:10;;;;;;;20.43;12.80;;;;;;;2.45;54.30;98120.09;5059604;28;20430;-71
2023/01/30 02:02:36;;;;;;;21.27;12.00;;;;;;;2.40;54.34;98107.41;5049508;28;20460;-69
2023/01/30 02:05:01;;;;;;;21.70;12.53;;;;;;;2.33;54.44;98105.22;5061383;28;20412;-68
2023/01/30 02:07:34;;;;;;;21.43;13.53;;;;;;;2.45;54.71;98125.28;5059651;28;20269;-68
2023/01/30 02:10:00;;;;;;;23.63;14.10;;;;;;;2.47;54.24;98115.69;5063133;28;20192;-68
2023/01/30 02:12:25;;;;;;;24.73;15.27;;;;;;;2.26;54.47;98112.44;5065550;28;20845;-68
2023/01/30 02:14:52;;;;;;;24.87;13.70;;;;;;;2.30;54.79;98125.13;5061289;28;20212;-69
2023/01/30 02:17:18;;;;;;;23.47;13.40;;;;;;;2.42;54.35;98115.06;5057210;28;20183;-68
2023/01/30 02:19:55;;;;;;;24.07;13.00;;;;;;;2.38;54.60;98119.56;5064553;28;20428;-69
2023/01/30 02:22:36;;;;;;;20.17;12.43;;;;;;;2.34;54.62;98112.06;5050923;28;20445;-70
2023/01/30 02:25:13;;;;;;;18.43;12.10;;;;;;;2.43;54.25;98098.63;5058727;28;20482;-68
2023/01/30 02:28:15;;;;;;;18.83;12.80;;;;;;;2.43;53.61;98103.81;5052374;28;20843;-70
2023/01/30 02:30:51;;;;;;;19.87;12.83;;;;;;;2.44;54.40;98090.81;5063304;28;20507;-68
2023/01/30 02:33:35;;;;;;;17.90;12.10;;;;;;;2.39;54.42;98079.03;5062967;28;20532;-70
2023/01/30 02:36:01;;;;;;;22.37;13.40;;;;;;;2.20;54.83;98067.03;5060702;28;20837;-70
2023/01/30 02:38:48;;;;;;;21.23;13.80;;;;;;;2.25;55.23;98082.31;5059581;28;20462;-71
2023/01/30 02:41:22;;;;;;;19.97;12.90;;;;;;;2.36;54.67;98108.47;5064514;28;20187;-70
2023/01/30 02:44:00;;;;;;;20.67;13.60;;;;;;;2.35;54.91;98108.56;5055328;28;20530;-69
2023/01/30 02:46:32;;;;;;;23.13;13.97;;;;;;;2.38;54.57;98085.94;5062921;28;20437;-69
2023/01/30 02:49:13;;;;;;;16.90;11.33;;;;;;;2.40;54.00;98055.66;5061862;28;20474;-69
2023/01/30 02:51:40;;;;;;;20.23;12.60;;;;;;;2.18;54.85;98043.00;5048081;28;20952;-68
2023/01/30 02:54:06;;;;;;;21.07;13.57;;;;;;;2.15;55.13;98053.47;5059061;28;20942;-70
2023/01/30 02:56:51;;;;;;;20.17;13.10;;;;;;;2.18;55.58;98080.97;5055911;28;20762;-69
2023/01/30 02:59:40;;;;;;;20.37;12.17;;;;;;;2.29;55.14;98097.59;5057119;28;20429;-70
2023/01/30 03:02:12;;;;;;;19.40;12.80;;;;;;;2.35;55.30;98077.50;5064077;28;20446;-68
2023/01/30 03:05:01;;;;;;;18.10;12.77;;;;;;;2.37;54.68;98066.16;5063861;28;20421;-68
2023/01/30 03:07:35;;;;;;;21.50;12.33;;;;;;;2.34;55.00;98065.47;5058217;28;20461;-68
2023/01/30 03:10:05;;;;;;;21.10;13.27;;;;;;;2.36;55.13;98045.53;5061461;28;20478;-70
2023/01/30 03:13:00;;;;;;;19.90;12.90;;;;;;;2.40;54.71;98044.44;5068147;28;20516;-68
2023/01/30 03:15:33;;;;;;;20.70;11.77;;;;;;;2.28;54.87;98026.06;5059892;28;20543;-69
2023/01/30 03:17:58;;;;;;;22.53;12.73;;;;;;;2.08;55.36;98029.69;5057840;28;20460;-69
2023/01/30 03:20:24;;;;;;;22.53;13.13;;;;;;;2.23;55.43;98012.56;5063465;28;20432;-70
2023/01/30 03:22:50;;;;;;;18.97;12.43;;;;;;;2.18;55.18;98008.53;5064560;28;20206;-70
2023/01/30 03:25:21;;;;;;;21.40;13.13;;;;;;;2.19;55.54;97986.94;5060173;28;20183;-67
2023/01/30 03:27:47;;;;;;;20.60;11.83;;;;;;;2.10;55.76;97977.91;5054770;28;20186;-69
2023/01/30 03:30:13;;;;;;;20.27;13.00;;;;;;;1.97;55.88;97955.25;5051547;28;20880;-69
2023/01/30 03:32:38;;;;;;;19.80;11.57;;;;;;;2.07;55.86;97937.53;5049005;28;20452;-69
2023/01/30 03:35:04;;;;;;;19.87;11.37;;;;;;;2.17;55.54;97942.19;5059160;28;20304;-70
2023/01/30 03:37:29;;;;;;;17.47;11.23;;;;;;;2.12;55.61;97932.09;5053088;28;20661;-70
2023/01/30 03:39:55;;;;;;;17.80;12.20;;;;;;;2.31;55.58;97947.47;5063118;28;20248;-70
2023/01/30 03:42:20;;;;;;;18.60;11.40;;;;;;;2.18;55.21;97962.81;5056667;28;20211;-69
2023/01/30 03:44:46;;;;;;;18.30;12.27;;;;;;;2.29;55.58;97965.66;5065999;28;20181;-70
2023/01/30 03:47:11;;;;;;;17.80;10.90;;;;;;;2.12;55.87;97965.72;5055444;28;20278;-70
2023/01/30 03:49:37;;;;;;;18.80;12.27;;;;;;;2.22;55.46;97968.66;5063296;28;20645;-70
2023/01/30 03:52:02;;;;;;;19.93;11.63;;;;;;;2.29;55.54;97965.66;5062219;28;20221;-69
2023/01/30 03:54:28;;;;;;;17.30;11.20;;;;;;;2.40;55.27;97956.47;5062218;28;20271;-70
2023/01/30 03:56:53;;;;;;;18.30;11.93;;;;;;;2.27;55.52;97959.72;5061973;28;20218;-70
2023/01/30 03:59:18;;;;;;;19.30;11.60;;;;;;;2.10;55.85;97958.03;5054283;28;20187;-70
2023/01/30 04:01:44;;;;;;;20.60;11.80;;;;;;;2.08;55.67;97951.28;5070782;28;20222;-67
2023/01/30 04:04:09;;;;;;;18.30;11.73;;;;;;;2.11;55.82;97951.94;5043802;28;20186;-70
2023/01/30 04:06:35;;;;;;;20.33;12.00;;;;;;;2.32;55.99;97953.47;5059304;28;20179;-69
2023/01/30 04:09:00;;;;;;;22.13;12.07;;;;;;;2.41;55.68;97958.16;5055008;28;20185;-68
2023/01/30 04:11:26;;;;;;;18.30;11.23;;;;;;;2.37;55.35;97959.25;5062488;28;20214;-69
2023/01/30 04:13:51;;;;;;;15.13;10.60;;;;;;;2.21;55.73;97957.47;5058473;28;20206;-70
2023/01/30 04:16:19;;;;;;;18.53;11.20;;;;;;;2.17;55.63;97955.97;5058701;28;20674;-69
2023/01/30 04:18:45;;;;;;;19.20;9.83;;;;;;;2.35;55.24;97959.31;5056854;28;20701;-69
2023/01/30 04:21:13;;;;;;;14.57;10.77;;;;;;;2.26;55.63;97957.22;5062036;28;20421;-68
2023/01/30 04:23:39;;;;;;;15.83;9.63;;;;;;;2.05;56.16;97964.34;5064558;28;20228;-69
2023/01/30 04:26:05;;;;;;;16.43;10.30;;;;;;;2.11;56.12;97971.81;5061367;28;20788;-69
2023/01/30 04:28:30;;;;;;;18.37;10.70;;;;;;;2.00;56.72;97964.59;5062131;28;20432;-73
2023/01/30 04:30:56;;;;;;;16.53;10.83;;;;;;;2.12;56.03;97960.56;5055045;28;20432;-70
2023/01/30 04:33:21;;;;;;;15.20;10.37;;;;;;;2.19;55.80;97956.72;5056086;28;20206;-68
2023/01/30 04:35:54;;;;;;;21.40;11.07;;;;;;;2.17;56.00;97961.13;5069866;28;20233;-70
2023/01/30 04:38:20;;;;;;;18.43;11.27;;;;;;;2.14;55.90;97959.53;5044687;28;20202;-69
2023/01/30 04:40:54;;;;;;;18.33;11.37;;;;;;;2.22;55.68;97960.88;5063428;28;20425;-70
2023/01/30 04:43:20;;;;;;;19.70;11.00;;;;;;;2.27;56.00;97961.47;5063317;28;20441;-68
2023/01/30 04:45:47;;;;;;;16.20;10.13;;;;;;;2.37;55.53;97962.66;5055097;28;20521;-69
2023/01/30 04:48:14;;;;;;;15.53;10.50;;;;;;;2.24;55.74;97965.06;5042035;28;20491;-69
2023/01/30 04:50:40;;;;;;;18.30;10.10;;;;;;;2.32;55.75;97977.59;5033677;28;20529;-70
2023/01/30 04:53:06;;;;;;;15.40;9.93;;;;;;;2.17;56.00;97963.72;5062137;28;20486;-69
2023/01/30 04:55:31;;;;;;;15.50;11.23;;;;;;;2.47;56.06;97975.94;5064958;28;20460;-69
2023/01/30 04:57:57;;;;;;;17.70;10.60;;;;;;;2.52;55.51;97980.88;5055873;28;20226;-68
2023/01/30 05:00:22;;;;;;;16.50;10.90;;;;;;;2.68;54.92;97970.50;5044197;28;20287;-68
2023/01/30 05:02:48;;;;;;;15.63;10.40;;;;;;;2.48;54.97;97971.59;5056851;28;20662;-70
2023/01/30 05:05:13;;;;;;;15.53;10.00;;;;;;;2.63;54.86;97964.78;5057860;28;20657;-70
2023/01/30 05:07:39;;;;;;;18.23;11.23;;;;;;;2.73;54.54;97960.75;5052082;28;20186;-70
2023/01/30 05:10:05;;;;;;;17.03;10.13;;;;;;;2.64;54.57;97954.31;5056637;28;20200;-70
2023/01/30 05:12:30;;;;;;;14.83;10.07;;;;;;;2.64;54.23;97953.50;5064380;28;20229;-71
2023/01/30 05:14:56;;;;;;;18.57;10.70;;;;;;;2.73;54.34;97946.03;5051247;28;20485;-69
2023/01/30 05:17:21;;;;;;;16.00;10.33;;;;;;;2.76;54.35;97939.88;5063827;28;20191;-68
2023/01/30 05:19:46;;;;;;;13.93;9.90;;;;;;;2.87;54.18;97942.69;5052545;28;20183;-68
2023/01/30 05:22:12;;;;;;;14.90;9.80;;;;;;;2.83;54.04;97937.78;5051147;28;20238;-68
2023/01/30 05:24:37;;;;;;;16.60;10.70;;;;;;;2.93;54.08;97925.97;5055121;28;20602;-68
2023/01/30 05:27:03;;;;;;;15.43;9.50;;;;;;;2.97;53.71;97926.63;5059455;28;20236;-67
2023/01/30 05:29:29;;;;;;;16.00;10.37;;;;;;;2.94;53.85;97916.44;5054906;28;20205;-68
2023/01/30 05:31:54;;;;;;;14.70;9.73;;;;;;;2.83;54.02;97912.72;5055340;28;20228;-69
2023/01/30 05:34:20;;;;;;;13.60;9.73;;;;;;;2.78;54.13;97922.47;5055602;28;20191;-69
2023/01/30 05:36:45;;;;;;;22.13;10.73;;;;;;;2.64;54.31;97914.66;5028754;28;20261;-68
2023/01/30 05:39:10;;;;;;;11.60;8.60;;;;;;;2.69;54.14;97910.06;5056112;28;20206;-69
2023/01/30 05:41:36;;;;;;;15.40;9.37;;;;;;;2.64;54.20;97910.31;5055608;28;20278;-69
2023/01/30 05:44:01;;;;;;;15.13;10.30;;;;;;;2.56;54.53;97904.75;5054014;28;20241;-68
2023/01/30 05:46:27;;;;;;;14.20;10.17;;;;;;;2.64;54.21;97899.16;5058499;28;20179;-69
2023/01/30 05:48:52;;;;;;;15.07;9.27;;;;;;;2.75;53.93;97892.44;5057312;28;20678;-69
2023/01/30 05:51:20;;;;;;;18.30;10.27;;;;;;;2.71;54.08;97897.88;5054227;28;20290;-69
2023/01/30 05:53:46;;;;;;;14.97;9.27;;;;;;;2.65;54.33;97906.00;5054345;28;20198;-69
2023/01/30 05:56:11;;;;;;;16.50;10.20;;;;;;;2.63;54.33;97908.66;5059026;28;20461;-69
2023/01/30 05:58:37;;;;;;;14.53;10.03;;;;;;;2.84;53.87;97910.94;5055040;28;20189;-70
2023/01/30 06:01:05;;;;;;;16.07;9.63;;;;;;;2.95;53.62;97908.59;5055593;28;20841;-70
2023/01/30 06:03:30;;;;;;;21.73;10.33;;;;;;;2.81;53.92;97917.13;5050637;28;20285;-69
2023/01/30 06:05:56;;;;;;;15.87;9.60;;;;;;;3.00;53.19;97914.34;5060015;28;20524;-68
2023/01/30 06:08:21;;;;;;;16.90;9.70;;;;;;;3.10;53.74;97904.28;5052161;28;20824;-70
2023/01/30 06:10:47;;;;;;;16.10;10.27;;;;;;;3.20;53.12;97895.06;5060904;28;20220;-70
2023/01/30 06:13:12;;;;;;;14.70;9.50;;;;;;;3.20;52.68;97900.25;5063912;28;20202;-70
2023/01/30 06:15:38;;;;;;;12.80;9.43;;;;;;;3.09;52.87;97900.03;5058118;28;20200;-68
2023/01/30 06:18:03;;;;;;;16.73;9.67;;;;;;;3.08;52.80;97893.19;5054813;28;20258;-70
2023/01/30 06:20:29;;;;;;;16.97;10.20;;;;;;;3.01;53.14;97904.84;5051581;28;20176;-70
2023/01/30 06:22:54;;;;;;;16.13;9.30;;;;;;;3.14;52.47;97882.47;5052157;28;20907;-68
2023/01/30 06:25:19;;;;;;;15.13;10.03;;;;;;;3.01;52.73;97891.88;5058789;28;20244;-69
2023/01/30 06:27:45;;;;;;;14.83;10.13;;;;;;;3.08;53.13;97885.41;5055488;28;20776;-69
2023/01/30 06:30:11;;;;;;;17.97;10.50;;;;;;;3.12;52.75;97892.09;5056321;28;20666;-70
2023/01/30 06:32:37;;;;;;;14.10;9.73;;;;;;;3.18;53.16;97891.72;5058543;28;20319;-70
2023/01/30 06:35:02;;;;;;;16.70;10.67;;;;;;;3.13;53.00;97892.91;5049686;28;20479;-70
2023/01/30 06:37:28;;;;;;;15.23;9.57;;;;;;;3.19;52.64;97897.75;5063742;28;20345;-71
2023/01/30 06:39:53;;;;;;;16.43;9.60;;;;;;;3.18;52.57;97886.53;5057170;28;20262;-70
2023/01/30 06:42:19;;;;;;;16.60;9.70;;;;;;;3.24;53.00;97880.16;5063012;28;20685;-70
2023/01/30 06:44:44;;;;;;;15.23;10.30;;;;;;;3.32;53.03;97882.31;5056112;28;20506;-68
2023/01/30 06:47:09;;;;;;;16.23;9.60;;;;;;;3.07;53.35;97894.09;5060440;28;20213;-68
2023/01/30 06:49:35;;;;;;;11.87;8.60;;;;;;;3.15;53.35;97891.06;5052264;28;20265;-68
2023/01/30 06:52:00;;;;;;;15.60;9.00;;;;;;;3.15;53.39;97880.72;5059880;28;20337;-69
2023/01/30 06:54:26;;;;;;;15.30;8.40;;;;;;;3.01;53.67;97863.38;5053456;28;20196;-69
2023/01/30 06:56:52;;;;;;;13.10;8.80;;;;;;;3.25;53.11;97855.94;5051296;28;20236;-68
2023/01/30 06:59:18;;;;;;;14.13;9.67;;;;;;;3.12;53.67;97861.00;5047680;28;20195;-71
2023/01/30 07:01:43;;;;;;;16.40;10.10;;;;;;;3.18;53.76;97852.03;5053126;28;20431;-70
2023/01/30 07:04:09;;;;;;;16.20;10.17;;;;;;;3.17;54.02;97853.78;5044176;28;20269;-67
2023/01/30 07:06:34;;;;;;;18.30;7.37;;;;;;;2.79;54.60;97867.19;5051238;28;20175;-70
2023/01/30 07:09:00;;;;;;;14.50;9.20;;;;;;;3.13;53.77;97857.50;5050598;28;20183;-69
2023/01/30 07:11:25;;;;;;;13.87;9.33;;;;;;;3.14;53.74;97861.75;5051702;28;20224;-70
2023/01/30 07:13:51;;;;;;;14.33;8.80;;;;;;;3.13;53.99;97861.84;5050893;28;20207;-69
2023/01/30 07:16:16;;;;;;;14.57;9.50;;;;;;;3.03;54.57;97869.28;5047611;28;20850;-70
2023/01/30 07:18:41;;;;;;;15.77;10.10;;;;;;;3.19;54.13;97885.63;5051135;28;20270;-70
2023/01/30 07:21:07;;;;;;;12.63;9.20;;;;;;;3.31;53.54;97885.81;5051145;28;20266;-67
2023/01/30 07:23:32;;;;;;;16.90;9.70;;;;;;;3.32;53.73;97887.50;5051306;28;20199;-68
2023/01/30 07:25:58;;;;;;;12.53;8.80;;;;;;;3.50;53.88;97896.78;5051080;28;20225;-69
2023/01/30 07:28:23;;;;;;;12.90;9.10;;;;;;;3.42;53.90;97898.97;5050748;28;20678;-70
2023/01/30 07:30:51;;;;;;;13.97;9.03;;;;;;;3.49;53.83;97900.31;5050292;28;20244;-70
2023/01/30 07:33:17;;;;;;;14.17;9.90;;;;;;;3.48;53.60;97897.78;5051239;28;20207;-70
2023/01/30 07:35:42;;;;;;;14.50;8.57;;;;;;;3.48;53.93;97900.38;5059165;28;20457;-70
2023/01/30 07:38:08;;;;;;;13.23;8.77;;;;;;;3.64;53.55;97893.38;5037853;28;20183;-69
2023/01/30 07:40:33;;;;;;;12.57;8.23;;;;;;;3.66;54.11;97890.66;5045150;28;20595;-69
2023/01/30 07:43:07;;;;;;;11.80;8.90;;;;;;;3.78;53.49;97883.94;5042080;28;20203;-70
2023/01/30 07:45:44;;;;;;;11.60;8.47;;;;;;;3.59;53.68;97899.75;5039929;28;20233;-69
2023/01/30 07:48:10;;;;;;;13.00;8.90;;;;;;;3.82;54.23;97908.75;5039749;28;20474;-70
2023/01/30 07:50:36;;;;;;;12.07;8.47;;;;;;;3.91;54.07;97908.19;5046020;28;20418;-70
2023/01/30 07:53:03;;;;;;;12.57;8.60;;;;;;;3.93;53.39;97918.47;5055617;28;20777;-69
2023/01/30 07:55:29;;;;;;;13.13;9.07;;;;;;;3.98;53.37;97919.84;5045877;28;20199;-70
2023/01/30 07:57:54;;;;;;;13.00;8.47;;;;;;;4.03;53.23;97909.22;5043752;28;20425;-70
2023/01/30 08:00:20;;;;;;;12.47;8.70;;;;;;;4.05;53.08;97912.53;5045098;28;20255;-69
2023/01/30 08:02:45;;;;;;;11.53;8.00;;;;;;;3.95;53.69;97899.31;5048850;28;20209;-70
2023/01/30 08:05:11;;;;;;;11.60;7.93;;;;;;;3.94;52.99;97892.44;5040201;28;20915;-70
2023/01/30 08:07:36;;;;;;;15.00;9.37;;;;;;;3.94;52.76;97883.81;5046174;28;20708;-70
2023/01/30 08:10:02;;;;;;;12.03;8.77;;;;;;;4.13;52.40;97881.78;5042744;28;20187;-71
2023/01/30 08:12:28;;;;;;;16.20;8.97;;;;;;;4.18;52.52;97898.81;5045998;28;20247;-70
2023/01/30 08:14:53;;;;;;;13.10;8.67;;;;;;;4.26;52.49;97904.38;5043986;28;20453;-69
2023/01/30 08:17:19;;;;;;;14.40;7.83;;;;;;;4.35;53.03;97903.78;5055303;28;20674;-70
2023/01/30 08:19:44;;;;;;;11.30;7.63;;;;;;;4.37;52.84;97938.28;5030397;28;20175;-70
2023/01/30 08:22:10;;;;;;;12.40;8.27;;;;;;;4.18;53.12;97924.75;5040056;28;20215;-69
2023/01/30 08:24:35;;;;;;;11.87;8.20;;;;;;;4.16;53.55;97930.03;5052282;28;20214;-69
2023/01/30 08:27:01;;;;;;;11.87;8.47;;;;;;;4.02;53.58;97917.06;5044364;28;20221;-69
2023/01/30 08:29:26;;;;;;;13.40;8.27;;;;;;;4.09;53.87;97906.22;5044708;28;20225;-69
2023/01/30 08:31:58;;;;;;;17.43;8.83;;;;;;;4.03;54.11;97908.38;5043849;28;20206;-68
2023/01/30 08:34:24;;;;;;;12.90;8.30;;;;;;;3.99;53.95;97892.97;5056358;28;20258;-71
2023/01/30 08:36:49;;;;;;;11.10;7.90;;;;;;;4.08;53.46;97890.78;5042683;28;20426;-70
2023/01/30 08:39:15;;;;;;;14.03;9.40;;;;;;;4.02;54.05;97873.81;5044464;28;20676;-69
2023/01/30 08:41:43;;;;;;;15.93;9.10;;;;;;;4.17;54.08;97885.00;5049560;28;20232;-71
2023/01/30 08:44:09;;;;;;;13.20;8.90;;;;;;;4.33;53.30;97890.06;5051094;28;20698;-70
2023/01/30 08:46:35;;;;;;;10.90;7.43;;;;;;;4.54;53.55;97889.63;5049466;28;20839;-70
2023/01/30 08:49:01;;;;;;;12.80;8.47;;;;;;;4.71;52.94;97884.19;5046028;28;20429;-71
2023/01/30 08:51:26;;;;;;;11.73;8.20;;;;;;;4.89;52.16;97881.34;5037802;28;20738;-71
2023/01/30 08:53:51;;;;;;;9.43;7.90;;;;;;;4.85;51.57;97874.69;5041340;28;20561;-70
2023/01/30 08:56:17;;;;;;;10.67;7.17;;;;;;;5.10;51.55;97875.69;5042783;28;20295;-70
2023/01/30 08:58:44;;;;;;;12.03;7.30;;;;;;;4.95;51.67;97878.34;5044216;28;20210;-70
2023/01/30 09:01:09;;;;;;;11.93;8.17;;;;;;;4.98;51.78;97866.94;5046230;28;20216;-70
2023/01/30 09:03:35;;;;;;;12.60;7.90;;;;;;;5.27;51.87;97865.00;5049782;28;20525;-69
2023/01/30 09:06:00;;;;;;;11.40;8.37;;;;;;;5.46;51.38;97856.78;5044308;28;20206;-68
2023/01/30 09:08:26;;;;;;;10.90;8.07;;;;;;;5.98;50.59;97839.34;5044734;28;20180;-70
2023/01/30 09:10:51;;;;;;;10.53;7.80;;;;;;;5.94;50.02;97831.88;5042060;28;20183;-69
2023/01/30 09:13:17;;;;;;;12.47;8.07;;;;;;;5.98;50.39;97823.72;5040402;28;20202;-67
2023/01/30 09:15:43;;;;;;;11.27;8.13;;;;;;;6.10;49.74;97832.50;5041878;28;20203;-69
2023/01/30 09:18:08;;;;;;;13.53;7.93;;;;;;;6.41;49.69;97834.69;5034784;28;20673;-70
2023/01/30 09:20:34;;;;;;;11.30;7.70;;;;;;;6.83;48.57;97823.84;5037418;28;20719;-71
2023/01/30 09:23:00;;;;;;;11.00;7.60;;;;;;;7.32;47.90;97824.53;5038623;28;20208;-70
2023/01/30 09:25:26;;;;;;;14.43;7.90;;;;;;;7.34;46.72;97822.63;5038378;28;20175;-71
2023/01/30 09:27:51;;;;;;;11.20;7.73;;;;;;;7.47;46.93;97833.78;5040123;28;20509;-70
2023/01/30 09:30:17;;;;;;;9.70;6.57;;;;;;;7.15;47.56;97826.66;5038017;28;20191;-71
2023/01/30 09:32:42;;;;;;;8.30;6.17;;;;;;;7.05;47.63;97825.69;5043103;28;20199;-71
2023/01/30 09:35:09;;;;;;;9.90;7.23;;;;;;;7.01;47.59;97819.03;5012178;28;20247;-71
2023/01/30 09:37:34;;;;;;;5.87;4.80;;;;;;;6.42;48.83;97816.31;5030505;28;20508;-70
2023/01/30 09:40:00;;;;;;;8.27;6.03;;;;;;;6.30;49.93;97820.63;5044339;28;20276;-69
2023/01/30 09:42:31;;;;;;;8.93;6.00;;;;;;;6.36;49.65;97836.75;5048627;28;20285;-71
2023/01/30 09:45:15;;;;;;;11.30;6.30;;;;;;;6.23;50.41;97840.25;5048564;28;20183;-69
2023/01/30 09:48:05;;;;;;;8.43;5.77;;;;;;;6.01;51.00;97838.31;5048085;28;20428;-69
2023/01/30 09:50:48;;;;;;;9.13;5.37;;;;;;;6.15;50.94;97824.34;5047175;28;20422;-69
2023/01/30 09:53:20;;;;;;;8.40;5.97;;;;;;;5.96;51.21;97824.78;5053924;28;20834;-70
2023/01/30 09:55:45;;;;;;;8.93;6.50;;;;;;;5.81;52.03;97824.06;5048792;28;20534;-68
2023/01/30 09:58:22;;;;;;;11.30;5.60;;;;;;;5.76;52.20;97821.78;5045797;28;20426;-69
2023/01/30 10:00:51;;;;;;;11.37;6.30;;;;;;;5.53;52.56;97818.22;5044030;28;20183;-69
2023/01/30 10:03:24;;;;;;;8.20;5.50;;;;;;;5.67;52.07;97779.03;5047711;28;21048;-70
2023/01/30 10:06:01;;;;;;;7.53;5.80;;;;;;;5.82;52.33;97790.16;5048232;28;20482;-69
2023/01/30 10:08:48;;;;;;;7.97;5.77;;;;;;;5.91;52.35;97796.50;5049768;28;20440;-69
2023/01/30 10:11:40;;;;;;;7.00;5.00;;;;;;;5.82;52.62;97782.38;5048996;28;20520;-69
2023/01/30 10:14:25;;;;;;;7.27;5.53;;;;;;;5.96;52.49;97780.56;5044806;28;20441;-70
2023/01/30 10:17:01;;;;;;;6.10;4.40;;;;;;;6.22;52.49;97767.47;5022215;28;20425;-69
2023/01/30 10:19:49;;;;;;;6.50;4.13;;;;;;;5.97;52.93;97764.81;5051834;28;20471;-70
2023/01/30 10:22:23;;;;;;;4.90;3.90;;;;;;;6.18;52.99;97766.84;5043123;28;20988;-70
2023/01/30 10:24:58;;;;;;;6.50;3.97;;;;;;;6.40;52.28;97765.31;5056381;28;20443;-70
2023/01/30 10:27:24;;;;;;;5.80;3.73;;;;;;;6.33;52.61;97735.44;5044289;28;20571;-70
2023/01/30 10:29:55;;;;;;;4.23;3.83;;;;;;;6.24;52.97;97749.94;5042837;28;20434;-71
2023/01/30 10:32:43;;;;;;;4.80;3.50;;;;;;;6.45;52.77;97743.19;5042433;28;20823;-71
2023/01/30 10:35:16;;;;;;;4.27;3.67;;;;;;;6.52;52.76;97747.94;5051978;28;20532;-71
2023/01/30 10:37:44;;;;;;;4.53;3.43;;;;;;;6.23;53.34;97754.34;5040835;28;20426;-71
2023/01/30 10:40:37;;;;;;;7.13;3.67;;;;;;;6.32;53.50;97752.84;5049601;28;20413;-71
2023/01/30 10:43:18;;;;;;;4.97;3.70;;;;;;;6.28;53.87;97756.59;5045853;28;20454;-72
2023/01/30 10:45:56;;;;;;;5.50;4.20;;;;;;;6.23;54.33;97756.94;5051551;28;20418;-71
2023/01/30 10:48:49;;;;;;;3.60;3.00;;;;;;;6.08;55.11;97751.09;5040779;28;20428;-71
2023/01/30 10:51:37;;;;;;;4.20;3.10;;;;;;;6.40;54.51;97747.91;5037050;28;20505;-72
2023/01/30 10:54:12;;;;;;;4.97;3.40;;;;;;;6.34;54.72;97744.91;5053359;28;20448;-72
2023/01/30 10:57:06;;;;;;;3.23;2.83;;;;;;;6.02;55.43;97750.69;5040825;28;21146;-70
2023/01/30 11:00:09;;;;;;;4.17;2.93;;;;;;;6.24;55.15;97750.81;5024906;28;20805;-70
2023/01/30 11:02:39;;;;;;;5.90;2.80;;;;;;;6.47;54.53;97748.28;5033301;28;20442;-71
2023/01/30 11:05:25;;;;;;;2.67;2.43;;;;;;;6.40;55.19;97750.50;5039229;28;20437;-71
2023/01/30 11:07:50;;;;;;;3.03;2.77;;;;;;;6.29;55.92;97769.53;5041536;28;20416;-70
2023/01/30 11:10:18;;;;;;;4.40;2.97;;;;;;;6.54;55.16;97751.25;5037803;28;20440;-70
2023/01/30 11:12:44;;;;;;;3.00;2.70;;;;;;;6.68;54.81;97750.25;5046279;28;20345;-70
2023/01/30 11:15:10;;;;;;;5.07;3.43;;;;;;;6.49;55.28;97754.22;5042707;28;20484;-70
2023/01/30 11:17:38;;;;;;;6.20;3.77;;;;;;;6.50;55.15;97757.63;5046092;28;20180;-70
2023/01/30 11:20:11;;;;;;;4.37;3.43;;;;;;;6.47;55.67;97756.09;5050194;28;20441;-71
2023/01/30 11:22:36;;;;;;;6.00;3.53;;;;;;;6.37;55.53;97765.53;5046204;28;20795;-70
2023/01/30 11:25:21;;;;;;;5.70;3.80;;;;;;;6.42;55.37;97756.44;5039505;28;20471;-71
2023/01/30 11:27:56;;;;;;;6.50;3.90;;;;;;;6.54;55.32;97766.88;5041026;28;20232;-70
2023/01/30 11:30:26;;;;;;;5.33;4.20;;;;;;;6.30;56.36;97765.13;5041496;28;20444;-71
2023/01/30 11:33:04;;;;;;;6.83;4.37;;;;;;;5.97;57.53;97766.59;5038404;28;20454;-70
2023/01/30 11:35:31;;;;;;;6.07;4.00;;;;;;;5.93;57.92;97760.78;5052796;28;20471;-70
2023/01/30 11:38:12;;;;;;;4.80;3.80;;;;;;;6.03;57.56;97758.38;5045608;28;20461;-71
2023/01/30 11:40:39;;;;;;;6.77;4.27;;;;;;;6.11;57.43;97757.81;5043883;28;20500;-71
2023/01/30 11:43:11;;;;;;;5.40;4.23;;;;;;;6.10;57.22;97769.19;5049878;28;20441;-69
2023/01/30 11:45:38;;;;;;;6.10;4.20;;;;;;;5.98;57.92;97766.50;5056161;28;20913;-72
2023/01/30 11:48:10;;;;;;;5.43;4.03;;;;;;;6.20;57.56;97774.56;5048943;28;20433;-71